TimeMDT,TemperatureF,Dew PointF,Humidity,Sea Level PressureIn,VisibilityMPH,Wind Direction,Wind SpeedMPH,Gust SpeedMPH,PrecipitationIn,Events,Conditions,WindDirDegrees,DateUTC
12:15 AM,42.8,26.6,53,30.24,10.0,East,8.1,-,N/A,,Clear,90,2013-09-30 06:15:00
12:35 AM,42.8,26.6,53,30.24,10.0,ENE,9.2,-,N/A,,Clear,70,2013-09-30 06:35:00
12:55 AM,42.8,26.6,53,30.23,10.0,East,8.1,-,N/A,,Clear,90,2013-09-30 06:55:00
1:15 AM,42.8,26.6,53,30.24,10.0,ENE,5.8,-,N/A,,Clear,60,2013-09-30 07:15:00
1:35 AM,42.8,26.6,53,30.23,10.0,ENE,3.5,-,N/A,,Clear,60,2013-09-30 07:35:00
1:55 AM,39.2,24.8,56,30.23,10.0,North,4.6,-,N/A,,Clear,10,2013-09-30 07:55:00
2:15 AM,39.2,24.8,56,30.22,10.0,North,5.8,-,N/A,,Clear,360,2013-09-30 08:15:00
2:35 AM,39.2,24.8,56,30.22,10.0,North,3.5,-,N/A,,Clear,360,2013-09-30 08:35:00
2:55 AM,39.2,26.6,61,30.22,10.0,NNE,5.8,-,N/A,,Clear,20,2013-09-30 08:55:00
3:15 AM,37.4,26.6,65,30.21,10.0,NNE,5.8,-,N/A,,Clear,30,2013-09-30 09:15:00
3:35 AM,37.4,26.6,65,30.21,10.0,NNE,5.8,-,N/A,,Clear,20,2013-09-30 09:35:00
3:55 AM,35.6,26.6,70,30.21,10.0,North,4.6,-,N/A,,Clear,360,2013-09-30 09:55:00
4:15 AM,35.6,26.6,70,30.21,10.0,North,5.8,-,N/A,,Clear,360,2013-09-30 10:15:00
4:35 AM,35.6,26.6,70,30.21,10.0,NNE,5.8,-,N/A,,Clear,20,2013-09-30 10:35:00
4:55 AM,35.6,26.6,70,30.21,10.0,North,4.6,-,N/A,,Clear,10,2013-09-30 10:55:00
5:15 AM,37.4,26.6,65,30.21,10.0,North,4.6,-,N/A,,Clear,10,2013-09-30 11:15:00
5:35 AM,35.6,24.8,65,30.21,10.0,North,6.9,-,N/A,,Clear,10,2013-09-30 11:35:00
5:55 AM,35.6,26.6,70,30.21,10.0,NNE,6.9,-,N/A,,Clear,20,2013-09-30 11:55:00
6:15 AM,35.6,26.6,70,30.21,10.0,NNE,4.6,-,N/A,,Clear,20,2013-09-30 12:15:00
6:35 AM,35.6,26.6,70,30.21,10.0,North,3.5,-,N/A,,Clear,10,2013-09-30 12:35:00
6:55 AM,35.6,24.8,65,30.21,10.0,North,5.8,-,N/A,,Clear,350,2013-09-30 12:55:00
7:15 AM,33.8,24.8,70,30.21,10.0,North,6.9,-,N/A,,Clear,10,2013-09-30 13:15:00
7:35 AM,35.6,26.6,70,30.21,10.0,NNE,5.8,-,N/A,,Clear,20,2013-09-30 13:35:00
7:55 AM,41.0,28.4,61,30.21,10.0,Calm,Calm,-,N/A,,Clear,0,2013-09-30 13:55:00
8:15 AM,44.6,28.4,53,30.21,10.0,Calm,Calm,-,N/A,,Clear,0,2013-09-30 14:15:00
8:35 AM,46.4,28.4,50,30.21,10.0,North,4.6,-,N/A,,Clear,350,2013-09-30 14:35:00
8:55 AM,48.2,26.6,43,30.21,10.0,NNW,4.6,-,N/A,,Clear,340,2013-09-30 14:55:00
9:15 AM,51.8,26.6,38,30.22,10.0,NNW,3.5,-,N/A,,Clear,340,2013-09-30 15:15:00
9:35 AM,53.6,26.6,35,30.22,10.0,WSW,3.5,-,N/A,,Clear,250,2013-09-30 15:35:00
9:55 AM,55.4,24.8,31,30.22,10.0,Calm,Calm,-,N/A,,Clear,0,2013-09-30 15:55:00
10:15 AM,57.2,24.8,29,30.22,10.0,Calm,Calm,-,N/A,,Clear,0,2013-09-30 16:15:00
10:35 AM,59.0,24.8,27,30.21,10.0,Calm,Calm,-,N/A,,Clear,0,2013-09-30 16:35:00
10:55 AM,60.8,24.8,25,30.21,10.0,Calm,Calm,-,N/A,,Clear,0,2013-09-30 16:55:00
11:15 AM,62.6,24.8,24,30.20,10.0,Calm,Calm,-,N/A,,Clear,0,2013-09-30 17:15:00
11:35 AM,62.6,24.8,24,30.19,10.0,Calm,Calm,-,N/A,,Clear,0,2013-09-30 17:35:00
11:55 AM,64.4,24.8,22,30.18,10.0,West,5.8,-,N/A,,Clear,270,2013-09-30 17:55:00
12:15 PM,64.4,23.0,21,30.18,10.0,SSW,3.5,-,N/A,,Clear,210,2013-09-30 18:15:00
12:35 PM,66.2,23.0,19,30.17,10.0,SSW,6.9,-,N/A,,Clear,210,2013-09-30 18:35:00
12:55 PM,66.2,23.0,19,30.16,10.0,SSW,6.9,-,N/A,,Clear,210,2013-09-30 18:55:00
1:15 PM,68.0,23.0,18,30.15,10.0,SW,9.2,-,N/A,,Clear,220,2013-09-30 19:15:00
1:35 PM,69.8,24.8,18,30.14,10.0,WSW,3.5,-,N/A,,Clear,240,2013-09-30 19:35:00
1:55 PM,69.8,24.8,18,30.13,10.0,SSW,10.4,-,N/A,,Clear,200,2013-09-30 19:55:00
2:15 PM,69.8,24.8,18,30.12,10.0,WSW,5.8,-,N/A,,Clear,240,2013-09-30 20:15:00
2:35 PM,71.6,24.8,17,30.11,10.0,WSW,9.2,-,N/A,,Clear,240,2013-09-30 20:35:00
2:55 PM,71.6,24.8,17,30.11,10.0,SSW,10.4,-,N/A,,Clear,200,2013-09-30 20:55:00
3:15 PM,73.4,26.6,18,30.10,10.0,SSW,6.9,-,N/A,,Clear,200,2013-09-30 21:15:00
3:35 PM,73.4,24.8,16,30.09,10.0,South,10.4,-,N/A,,Clear,180,2013-09-30 21:35:00
3:55 PM,73.4,24.8,16,30.08,10.0,South,11.5,17.3,N/A,,Clear,180,2013-09-30 21:55:00
4:15 PM,75.2,26.6,17,30.07,10.0,SW,10.4,17.3,N/A,,Clear,220,2013-09-30 22:15:00
4:35 PM,75.2,28.4,18,30.07,10.0,SSW,12.7,-,N/A,,Clear,200,2013-09-30 22:35:00
4:55 PM,75.2,28.4,18,30.06,10.0,SSW,12.7,-,N/A,,Clear,210,2013-09-30 22:55:00
5:15 PM,75.2,28.4,18,30.06,10.0,SW,17.3,-,N/A,,Clear,230,2013-09-30 23:15:00
5:35 PM,73.4,28.4,19,30.06,10.0,SW,16.1,20.7,N/A,,Clear,230,2013-09-30 23:35:00
5:55 PM,73.4,28.4,19,30.06,10.0,WSW,11.5,-,N/A,,Clear,250,2013-09-30 23:55:00
6:15 PM,71.6,28.4,20,30.06,10.0,WSW,13.8,-,N/A,,Clear,240,2013-10-01 00:15:00
6:35 PM,69.8,26.6,20,30.07,10.0,West,9.2,-,N/A,,Clear,260,2013-10-01 00:35:00
6:55 PM,66.2,26.6,23,30.08,10.0,WSW,10.4,-,N/A,,Clear,240,2013-10-01 00:55:00
7:15 PM,64.4,26.6,24,30.09,10.0,SW,9.2,-,N/A,,Clear,230,2013-10-01 01:15:00
7:35 PM,60.8,26.6,27,30.10,10.0,SSW,9.2,-,N/A,,Clear,210,2013-10-01 01:35:00
7:55 PM,60.8,26.6,27,30.10,10.0,WSW,8.1,-,N/A,,Clear,240,2013-10-01 01:55:00
8:15 PM,60.8,24.8,25,30.11,10.0,WSW,10.4,-,N/A,,Clear,240,2013-10-01 02:15:00
8:35 PM,57.2,24.8,29,30.11,10.0,SSW,3.5,-,N/A,,Clear,200,2013-10-01 02:35:00
8:55 PM,55.4,24.8,31,30.12,10.0,SW,5.8,-,N/A,,Clear,230,2013-10-01 02:55:00
9:15 PM,53.6,26.6,35,30.13,10.0,ESE,4.6,-,N/A,,Clear,110,2013-10-01 03:15:00
9:35 PM,53.6,26.6,35,30.14,10.0,SE,4.6,-,N/A,,Clear,130,2013-10-01 03:35:00
9:55 PM,53.6,24.8,33,30.14,10.0,SE,8.1,-,N/A,,Clear,140,2013-10-01 03:55:00
10:15 PM,51.8,26.6,38,30.14,10.0,ESE,9.2,-,N/A,,Clear,120,2013-10-01 04:15:00
10:35 PM,51.8,26.6,38,30.15,10.0,ESE,8.1,-,N/A,,Clear,120,2013-10-01 04:35:00
10:55 PM,48.2,26.6,43,30.15,10.0,SE,8.1,-,N/A,,Clear,130,2013-10-01 04:55:00
11:15 PM,46.4,28.4,50,30.15,10.0,East,9.2,-,N/A,,Clear,80,2013-10-01 05:15:00
11:35 PM,46.4,28.4,50,30.15,10.0,East,8.1,-,N/A,,Clear,100,2013-10-01 05:35:00
11:55 PM,46.4,28.4,50,30.14,10.0,East,8.1,-,N/A,,Clear,80,2013-10-01 05:55:00